sensor_id;sensor_type;location;lat;lon;timestamp;temperature;humidity
8537;DHT22;4306;50.210;10.628;2023-12-20T00:01:18;4.00;99.90
8537;DHT22;4306;50.210;10.628;2023-12-20T00:03:45;4.00;99.90
8537;DHT22;4306;50.210;10.628;2023-12-20T00:06:12;4.00;99.90
8537;DHT22;4306;50.210;10.628;2023-12-20T00:08:39;4.00;99.90
8537;DHT22;4306;50.210;10.628;2023-12-20T00:11:07;4.00;99.90
8537;DHT22;4306;50.210;10.628;2023-12-20T00:13:34;4.00;99.90
8537;DHT22;4306;50.210;10.628;2023-12-20T00:16:01;4.00;99.90
8537;DHT22;4306;50.210;10.628;2023-12-20T00:18:29;4.10;99.90
8537;DHT22;4306;50.210;10.628;2023-12-20T00:20:55;4.10;99.90
8537;DHT22;4306;50.210;10.628;2023-12-20T00:23:23;4.00;99.90
8537;DHT22;4306;50.210;10.628;2023-12-20T00:25:50;4.10;99.90
8537;DHT22;4306;50.210;10.628;2023-12-20T00:28:18;4.00;99.90
8537;DHT22;4306;50.210;10.628;2023-12-20T00:30:45;4.20;99.90
8537;DHT22;4306;50.210;10.628;2023-12-20T00:33:12;4.10;99.90
8537;DHT22;4306;50.210;10.628;2023-12-20T00:35:39;4.10;99.90
8537;DHT22;4306;50.210;10.628;2023-12-20T00:38:06;4.10;99.90
8537;DHT22;4306;50.210;10.628;2023-12-20T00:40:34;4.10;99.90
8537;DHT22;4306;50.210;10.628;2023-12-20T00:43:01;4.20;99.90
8537;DHT22;4306;50.210;10.628;2023-12-20T00:45:30;4.20;99.90
8537;DHT22;4306;50.210;10.628;2023-12-20T00:47:57;4.20;99.90
8537;DHT22;4306;50.210;10.628;2023-12-20T00:50:24;4.20;99.90
8537;DHT22;4306;50.210;10.628;2023-12-20T00:52:52;4.20;99.90
8537;DHT22;4306;50.210;10.628;2023-12-20T00:55:20;4.20;99.90
8537;DHT22;4306;50.210;10.628;2023-12-20T00:57:47;4.20;99.90
8537;DHT22;4306;50.210;10.628;2023-12-20T01:00:14;4.30;99.90
8537;DHT22;4306;50.210;10.628;2023-12-20T01:02:43;4.20;99.90
8537;DHT22;4306;50.210;10.628;2023-12-20T01:05:12;4.20;99.90
8537;DHT22;4306;50.210;10.628;2023-12-20T01:07:39;4.30;99.90
8537;DHT22;4306;50.210;10.628;2023-12-20T01:10:06;4.30;99.90
8537;DHT22;4306;50.210;10.628;2023-12-20T01:12:35;4.30;99.90
8537;DHT22;4306;50.210;10.628;2023-12-20T01:15:01;4.30;99.90
8537;DHT22;4306;50.210;10.628;2023-12-20T01:17:29;4.30;99.90
8537;DHT22;4306;50.210;10.628;2023-12-20T01:19:57;4.30;99.90
8537;DHT22;4306;50.210;10.628;2023-12-20T01:22:24;4.30;99.90
8537;DHT22;4306;50.210;10.628;2023-12-20T01:24:51;4.40;99.90
8537;DHT22;4306;50.210;10.628;2023-12-20T01:27:18;4.40;99.90
8537;DHT22;4306;50.210;10.628;2023-12-20T01:29:45;4.40;99.90
8537;DHT22;4306;50.210;10.628;2023-12-20T01:32:12;4.30;99.90
8537;DHT22;4306;50.210;10.628;2023-12-20T01:34:39;4.40;99.90
8537;DHT22;4306;50.210;10.628;2023-12-20T01:37:07;4.30;99.90
8537;DHT22;4306;50.210;10.628;2023-12-20T01:39:34;4.30;99.90
8537;DHT22;4306;50.210;10.628;2023-12-20T01:42:01;4.40;99.90
8537;DHT22;4306;50.210;10.628;2023-12-20T01:44:29;4.30;99.90
8537;DHT22;4306;50.210;10.628;2023-12-20T01:46:56;4.30;99.90
8537;DHT22;4306;50.210;10.628;2023-12-20T01:49:23;4.30;99.90
8537;DHT22;4306;50.210;10.628;2023-12-20T01:51:51;4.30;99.90
8537;DHT22;4306;50.210;10.628;2023-12-20T01:54:19;4.30;99.90
8537;DHT22;4306;50.210;10.628;2023-12-20T01:56:48;4.40;99.90
8537;DHT22;4306;50.210;10.628;2023-12-20T01:59:17;4.30;99.90
8537;DHT22;4306;50.210;10.628;2023-12-20T02:01:44;4.30;99.90
8537;DHT22;4306;50.210;10.628;2023-12-20T02:04:12;4.40;99.90
8537;DHT22;4306;50.210;10.628;2023-12-20T02:06:40;4.30;99.90
8537;DHT22;4306;50.210;10.628;2023-12-20T02:09:07;4.30;99.90
8537;DHT22;4306;50.210;10.628;2023-12-20T02:11:36;4.30;99.90
8537;DHT22;4306;50.210;10.628;2023-12-20T02:14:03;4.30;99.90
8537;DHT22;4306;50.210;10.628;2023-12-20T02:16:30;4.30;99.90
8537;DHT22;4306;50.210;10.628;2023-12-20T02:18:57;4.30;99.90
8537;DHT22;4306;50.210;10.628;2023-12-20T02:21:32;4.30;99.90
8537;DHT22;4306;50.210;10.628;2023-12-20T02:24:00;4.30;99.90
8537;DHT22;4306;50.210;10.628;2023-12-20T02:26:27;4.30;99.90
8537;DHT22;4306;50.210;10.628;2023-12-20T02:28:54;4.30;99.90
8537;DHT22;4306;50.210;10.628;2023-12-20T02:31:22;4.30;99.90
8537;DHT22;4306;50.210;10.628;2023-12-20T02:33:49;4.40;99.90
8537;DHT22;4306;50.210;10.628;2023-12-20T02:36:16;4.30;99.90
8537;DHT22;4306;50.210;10.628;2023-12-20T02:38:44;4.30;99.90
8537;DHT22;4306;50.210;10.628;2023-12-20T02:41:11;4.20;99.90
8537;DHT22;4306;50.210;10.628;2023-12-20T02:43:39;4.30;99.90
8537;DHT22;4306;50.210;10.628;2023-12-20T02:46:06;4.30;99.90
8537;DHT22;4306;50.210;10.628;2023-12-20T02:48:33;4.30;99.90
8537;DHT22;4306;50.210;10.628;2023-12-20T02:51:00;4.30;99.90
8537;DHT22;4306;50.210;10.628;2023-12-20T02:53:27;4.30;99.90
8537;DHT22;4306;50.210;10.628;2023-12-20T02:55:55;4.30;99.90
8537;DHT22;4306;50.210;10.628;2023-12-20T02:58:22;4.30;99.90
8537;DHT22;4306;50.210;10.628;2023-12-20T03:00:49;4.30;99.90
8537;DHT22;4306;50.210;10.628;2023-12-20T03:03:16;4.30;99.90
8537;DHT22;4306;50.210;10.628;2023-12-20T03:05:43;4.30;99.90
8537;DHT22;4306;50.210;10.628;2023-12-20T03:08:11;4.20;99.90
8537;DHT22;4306;50.210;10.628;2023-12-20T03:10:38;4.30;99.90
8537;DHT22;4306;50.210;10.628;2023-12-20T03:13:07;4.20;99.90
8537;DHT22;4306;50.210;10.628;2023-12-20T03:15:34;4.20;99.90
8537;DHT22;4306;50.210;10.628;2023-12-20T03:18:01;4.20;99.90
8537;DHT22;4306;50.210;10.628;2023-12-20T03:20:28;4.30;99.90
8537;DHT22;4306;50.210;10.628;2023-12-20T03:22:58;4.20;99.90
8537;DHT22;4306;50.210;10.628;2023-12-20T03:25:25;4.20;99.90
8537;DHT22;4306;50.210;10.628;2023-12-20T03:27:52;4.20;99.90
8537;DHT22;4306;50.210;10.628;2023-12-20T03:30:21;4.20;99.90
8537;DHT22;4306;50.210;10.628;2023-12-20T03:32:48;4.20;99.90
8537;DHT22;4306;50.210;10.628;2023-12-20T03:35:15;4.20;99.90
8537;DHT22;4306;50.210;10.628;2023-12-20T03:37:42;4.20;99.90
8537;DHT22;4306;50.210;10.628;2023-12-20T03:40:10;4.20;99.90
8537;DHT22;4306;50.210;10.628;2023-12-20T03:42:37;4.30;99.90
8537;DHT22;4306;50.210;10.628;2023-12-20T03:45:05;4.30;99.90
8537;DHT22;4306;50.210;10.628;2023-12-20T03:47:34;4.30;99.90
8537;DHT22;4306;50.210;10.628;2023-12-20T03:50:01;4.30;99.90
8537;DHT22;4306;50.210;10.628;2023-12-20T03:52:28;4.20;99.90
8537;DHT22;4306;50.210;10.628;2023-12-20T03:54:55;4.20;99.90
8537;DHT22;4306;50.210;10.628;2023-12-20T03:57:22;4.20;99.90
8537;DHT22;4306;50.210;10.628;2023-12-20T03:59:49;4.20;99.90
8537;DHT22;4306;50.210;10.628;2023-12-20T04:02:16;4.20;99.90
8537;DHT22;4306;50.210;10.628;2023-12-20T04:04:44;4.20;99.90
8537;DHT22;4306;50.210;10.628;2023-12-20T04:07:11;4.20;99.90
8537;DHT22;4306;50.210;10.628;2023-12-20T04:09:40;4.20;99.90
8537;DHT22;4306;50.210;10.628;2023-12-20T04:12:07;4.20;99.90
8537;DHT22;4306;50.210;10.628;2023-12-20T04:14:34;4.20;99.90
8537;DHT22;4306;50.210;10.628;2023-12-20T04:17:01;4.30;99.90
8537;DHT22;4306;50.210;10.628;2023-12-20T04:19:28;4.20;99.90
8537;DHT22;4306;50.210;10.628;2023-12-20T04:21:57;4.30;99.90
8537;DHT22;4306;50.210;10.628;2023-12-20T04:24:24;4.30;99.90
8537;DHT22;4306;50.210;10.628;2023-12-20T04:26:51;4.30;99.90
8537;DHT22;4306;50.210;10.628;2023-12-20T04:29:18;4.30;99.90
8537;DHT22;4306;50.210;10.628;2023-12-20T04:31:45;4.20;99.90
8537;DHT22;4306;50.210;10.628;2023-12-20T04:34:11;4.20;99.90
8537;DHT22;4306;50.210;10.628;2023-12-20T04:36:38;4.20;99.90
8537;DHT22;4306;50.210;10.628;2023-12-20T04:39:07;4.10;99.90
8537;DHT22;4306;50.210;10.628;2023-12-20T04:41:34;4.20;99.90
8537;DHT22;4306;50.210;10.628;2023-12-20T04:44:01;4.20;99.90
8537;DHT22;4306;50.210;10.628;2023-12-20T04:46:28;4.20;99.90
8537;DHT22;4306;50.210;10.628;2023-12-20T04:48:55;4.20;99.90
8537;DHT22;4306;50.210;10.628;2023-12-20T04:51:23;4.20;99.90
8537;DHT22;4306;50.210;10.628;2023-12-20T04:53:50;4.20;99.90
8537;DHT22;4306;50.210;10.628;2023-12-20T04:56:18;4.20;99.90
8537;DHT22;4306;50.210;10.628;2023-12-20T04:58:45;4.20;99.90
8537;DHT22;4306;50.210;10.628;2023-12-20T05:01:13;4.30;99.90
8537;DHT22;4306;50.210;10.628;2023-12-20T05:03:40;4.20;99.90
8537;DHT22;4306;50.210;10.628;2023-12-20T05:06:07;4.20;99.90
8537;DHT22;4306;50.210;10.628;2023-12-20T05:08:33;4.20;99.90
8537;DHT22;4306;50.210;10.628;2023-12-20T05:11:01;4.20;99.90
8537;DHT22;4306;50.210;10.628;2023-12-20T05:13:29;4.20;99.90
8537;DHT22;4306;50.210;10.628;2023-12-20T05:15:56;4.20;99.90
8537;DHT22;4306;50.210;10.628;2023-12-20T05:18:23;4.20;99.90
8537;DHT22;4306;50.210;10.628;2023-12-20T05:20:50;4.20;99.90
8537;DHT22;4306;50.210;10.628;2023-12-20T05:23:18;4.20;99.90
8537;DHT22;4306;50.210;10.628;2023-12-20T05:25:46;4.20;99.90
8537;DHT22;4306;50.210;10.628;2023-12-20T05:28:13;4.20;99.90
8537;DHT22;4306;50.210;10.628;2023-12-20T05:30:41;4.20;99.90
8537;DHT22;4306;50.210;10.628;2023-12-20T05:33:08;4.30;99.90
8537;DHT22;4306;50.210;10.628;2023-12-20T05:35:35;4.30;99.90
8537;DHT22;4306;50.210;10.628;2023-12-20T05:38:03;4.30;99.90
8537;DHT22;4306;50.210;10.628;2023-12-20T05:40:30;4.30;99.90
8537;DHT22;4306;50.210;10.628;2023-12-20T05:42:57;4.20;99.90
8537;DHT22;4306;50.210;10.628;2023-12-20T05:45:24;4.30;99.90
8537;DHT22;4306;50.210;10.628;2023-12-20T05:47:52;4.30;99.90
8537;DHT22;4306;50.210;10.628;2023-12-20T05:50:19;4.20;99.90
8537;DHT22;4306;50.210;10.628;2023-12-20T05:52:46;4.30;99.90
8537;DHT22;4306;50.210;10.628;2023-12-20T05:55:13;4.30;99.90
8537;DHT22;4306;50.210;10.628;2023-12-20T05:57:40;4.20;99.90
8537;DHT22;4306;50.210;10.628;2023-12-20T06:00:12;4.20;99.90
8537;DHT22;4306;50.210;10.628;2023-12-20T06:02:41;4.20;99.90
8537;DHT22;4306;50.210;10.628;2023-12-20T06:05:09;4.20;99.90
8537;DHT22;4306;50.210;10.628;2023-12-20T06:07:37;4.20;99.90
8537;DHT22;4306;50.210;10.628;2023-12-20T06:10:04;4.20;99.90
8537;DHT22;4306;50.210;10.628;2023-12-20T06:12:32;4.20;99.90
8537;DHT22;4306;50.210;10.628;2023-12-20T06:15:01;4.20;99.90
8537;DHT22;4306;50.210;10.628;2023-12-20T06:17:29;4.20;99.90
8537;DHT22;4306;50.210;10.628;2023-12-20T06:19:57;4.20;99.90
8537;DHT22;4306;50.210;10.628;2023-12-20T06:22:25;4.20;99.90
8537;DHT22;4306;50.210;10.628;2023-12-20T06:24:52;4.20;99.90
8537;DHT22;4306;50.210;10.628;2023-12-20T06:27:20;4.20;99.90
8537;DHT22;4306;50.210;10.628;2023-12-20T06:29:47;4.20;99.90
8537;DHT22;4306;50.210;10.628;2023-12-20T06:32:14;4.20;99.90
8537;DHT22;4306;50.210;10.628;2023-12-20T06:34:41;4.10;99.90
8537;DHT22;4306;50.210;10.628;2023-12-20T06:37:08;4.10;99.90
8537;DHT22;4306;50.210;10.628;2023-12-20T06:39:36;4.00;99.90
8537;DHT22;4306;50.210;10.628;2023-12-20T06:42:03;4.00;99.90
8537;DHT22;4306;50.210;10.628;2023-12-20T06:44:30;4.00;99.90
8537;DHT22;4306;50.210;10.628;2023-12-20T06:46:58;4.00;99.90
8537;DHT22;4306;50.210;10.628;2023-12-20T06:49:25;4.00;99.90
8537;DHT22;4306;50.210;10.628;2023-12-20T06:51:52;3.90;99.90
8537;DHT22;4306;50.210;10.628;2023-12-20T06:54:19;3.90;99.90
8537;DHT22;4306;50.210;10.628;2023-12-20T06:56:47;3.90;99.90
8537;DHT22;4306;50.210;10.628;2023-12-20T06:59:14;4.00;99.90
8537;DHT22;4306;50.210;10.628;2023-12-20T07:01:41;4.00;99.90
8537;DHT22;4306;50.210;10.628;2023-12-20T07:04:09;4.00;99.90
8537;DHT22;4306;50.210;10.628;2023-12-20T07:06:36;4.00;99.90
8537;DHT22;4306;50.210;10.628;2023-12-20T07:09:03;4.00;99.90
8537;DHT22;4306;50.210;10.628;2023-12-20T07:11:31;3.90;99.90
8537;DHT22;4306;50.210;10.628;2023-12-20T07:13:59;4.00;99.90
8537;DHT22;4306;50.210;10.628;2023-12-20T07:16:26;4.00;99.90
8537;DHT22;4306;50.210;10.628;2023-12-20T07:18:53;4.00;99.90
8537;DHT22;4306;50.210;10.628;2023-12-20T07:21:21;4.00;99.90
8537;DHT22;4306;50.210;10.628;2023-12-20T07:23:48;4.00;99.90
8537;DHT22;4306;50.210;10.628;2023-12-20T07:26:16;4.00;99.90
8537;DHT22;4306;50.210;10.628;2023-12-20T07:28:43;4.00;99.90
8537;DHT22;4306;50.210;10.628;2023-12-20T07:31:12;4.00;99.90
8537;DHT22;4306;50.210;10.628;2023-12-20T07:33:39;4.10;99.90
8537;DHT22;4306;50.210;10.628;2023-12-20T07:36:06;4.00;99.90
8537;DHT22;4306;50.210;10.628;2023-12-20T07:38:34;4.00;99.90
8537;DHT22;4306;50.210;10.628;2023-12-20T07:41:01;4.00;99.90
8537;DHT22;4306;50.210;10.628;2023-12-20T07:43:28;4.00;99.90
8537;DHT22;4306;50.210;10.628;2023-12-20T07:45:55;3.90;99.90
8537;DHT22;4306;50.210;10.628;2023-12-20T07:48:24;3.90;99.90
8537;DHT22;4306;50.210;10.628;2023-12-20T07:50:51;3.90;99.90
8537;DHT22;4306;50.210;10.628;2023-12-20T07:53:19;3.90;99.90
8537;DHT22;4306;50.210;10.628;2023-12-20T07:55:46;3.80;99.90
8537;DHT22;4306;50.210;10.628;2023-12-20T07:58:13;3.80;99.90
8537;DHT22;4306;50.210;10.628;2023-12-20T08:00:40;3.80;99.90
8537;DHT22;4306;50.210;10.628;2023-12-20T08:03:07;3.70;99.90
8537;DHT22;4306;50.210;10.628;2023-12-20T08:05:35;3.80;99.90
8537;DHT22;4306;50.210;10.628;2023-12-20T08:08:03;3.80;99.90
8537;DHT22;4306;50.210;10.628;2023-12-20T08:10:30;3.80;99.90
8537;DHT22;4306;50.210;10.628;2023-12-20T08:12:57;3.90;99.90
8537;DHT22;4306;50.210;10.628;2023-12-20T08:15:24;3.80;99.90
8537;DHT22;4306;50.210;10.628;2023-12-20T08:17:51;3.80;99.90
8537;DHT22;4306;50.210;10.628;2023-12-20T08:20:18;3.80;99.90
8537;DHT22;4306;50.210;10.628;2023-12-20T08:22:47;3.80;99.90
8537;DHT22;4306;50.210;10.628;2023-12-20T08:25:14;3.90;99.90
8537;DHT22;4306;50.210;10.628;2023-12-20T08:27:41;3.90;99.90
8537;DHT22;4306;50.210;10.628;2023-12-20T08:30:09;3.90;99.90
8537;DHT22;4306;50.210;10.628;2023-12-20T08:32:36;3.90;99.90
8537;DHT22;4306;50.210;10.628;2023-12-20T08:35:04;3.90;99.90
8537;DHT22;4306;50.210;10.628;2023-12-20T08:37:31;3.90;99.90
8537;DHT22;4306;50.210;10.628;2023-12-20T08:40:00;4.00;99.90
8537;DHT22;4306;50.210;10.628;2023-12-20T08:42:27;4.00;99.90
8537;DHT22;4306;50.210;10.628;2023-12-20T08:44:56;4.10;99.90
8537;DHT22;4306;50.210;10.628;2023-12-20T08:47:24;4.20;99.90
8537;DHT22;4306;50.210;10.628;2023-12-20T08:49:51;4.20;99.90
8537;DHT22;4306;50.210;10.628;2023-12-20T08:52:21;4.20;99.90
8537;DHT22;4306;50.210;10.628;2023-12-20T08:54:49;4.20;99.90
8537;DHT22;4306;50.210;10.628;2023-12-20T08:57:19;4.30;99.90
8537;DHT22;4306;50.210;10.628;2023-12-20T08:59:48;4.30;99.90
8537;DHT22;4306;50.210;10.628;2023-12-20T09:02:15;4.40;99.90
8537;DHT22;4306;50.210;10.628;2023-12-20T09:04:43;4.40;99.90
8537;DHT22;4306;50.210;10.628;2023-12-20T09:07:21;4.50;99.90
8537;DHT22;4306;50.210;10.628;2023-12-20T09:09:49;4.40;99.90
8537;DHT22;4306;50.210;10.628;2023-12-20T09:12:19;4.40;99.90
8537;DHT22;4306;50.210;10.628;2023-12-20T09:14:46;4.50;99.90
8537;DHT22;4306;50.210;10.628;2023-12-20T09:17:13;4.50;99.90
8537;DHT22;4306;50.210;10.628;2023-12-20T09:19:40;4.40;99.90
8537;DHT22;4306;50.210;10.628;2023-12-20T09:22:07;4.40;99.90
8537;DHT22;4306;50.210;10.628;2023-12-20T09:24:34;4.50;99.90
8537;DHT22;4306;50.210;10.628;2023-12-20T09:27:01;4.40;99.90
8537;DHT22;4306;50.210;10.628;2023-12-20T09:29:30;4.50;99.90
8537;DHT22;4306;50.210;10.628;2023-12-20T09:31:57;4.50;99.90
8537;DHT22;4306;50.210;10.628;2023-12-20T09:34:24;4.50;99.90
8537;DHT22;4306;50.210;10.628;2023-12-20T09:36:52;4.50;99.90
8537;DHT22;4306;50.210;10.628;2023-12-20T09:39:20;4.50;99.90
8537;DHT22;4306;50.210;10.628;2023-12-20T09:41:59;4.50;99.90
8537;DHT22;4306;50.210;10.628;2023-12-20T09:44:28;4.50;99.90
8537;DHT22;4306;50.210;10.628;2023-12-20T09:46:57;4.40;99.90
8537;DHT22;4306;50.210;10.628;2023-12-20T09:49:25;4.40;99.90
8537;DHT22;4306;50.210;10.628;2023-12-20T09:51:54;4.40;99.90
8537;DHT22;4306;50.210;10.628;2023-12-20T09:54:23;4.40;99.90
8537;DHT22;4306;50.210;10.628;2023-12-20T09:56:50;4.40;99.90
8537;DHT22;4306;50.210;10.628;2023-12-20T09:59:17;4.40;99.90
8537;DHT22;4306;50.210;10.628;2023-12-20T10:01:45;4.40;99.90
8537;DHT22;4306;50.210;10.628;2023-12-20T10:04:13;4.50;99.90
8537;DHT22;4306;50.210;10.628;2023-12-20T10:06:40;4.40;99.90
8537;DHT22;4306;50.210;10.628;2023-12-20T10:09:08;4.40;99.90
8537;DHT22;4306;50.210;10.628;2023-12-20T10:11:37;4.40;99.90
8537;DHT22;4306;50.210;10.628;2023-12-20T10:14:04;4.50;99.90
8537;DHT22;4306;50.210;10.628;2023-12-20T10:16:32;4.50;99.90
8537;DHT22;4306;50.210;10.628;2023-12-20T10:19:01;4.50;99.90
8537;DHT22;4306;50.210;10.628;2023-12-20T10:21:28;4.50;99.90
8537;DHT22;4306;50.210;10.628;2023-12-20T10:23:56;4.60;99.90
8537;DHT22;4306;50.210;10.628;2023-12-20T10:26:24;4.80;99.90
8537;DHT22;4306;50.210;10.628;2023-12-20T10:28:53;4.70;99.90
8537;DHT22;4306;50.210;10.628;2023-12-20T10:31:29;4.70;99.90
8537;DHT22;4306;50.210;10.628;2023-12-20T10:33:58;4.70;99.90
8537;DHT22;4306;50.210;10.628;2023-12-20T10:36:28;4.70;99.90
8537;DHT22;4306;50.210;10.628;2023-12-20T10:38:57;4.70;99.90
8537;DHT22;4306;50.210;10.628;2023-12-20T10:41:27;4.60;99.90
8537;DHT22;4306;50.210;10.628;2023-12-20T10:43:59;4.60;99.90
8537;DHT22;4306;50.210;10.628;2023-12-20T10:46:29;4.60;99.90
8537;DHT22;4306;50.210;10.628;2023-12-20T10:48:58;4.60;99.90
8537;DHT22;4306;50.210;10.628;2023-12-20T10:51:26;4.70;99.90
8537;DHT22;4306;50.210;10.628;2023-12-20T10:53:56;4.60;99.90
8537;DHT22;4306;50.210;10.628;2023-12-20T10:56:23;4.70;99.90
8537;DHT22;4306;50.210;10.628;2023-12-20T10:58:50;4.70;99.90
8537;DHT22;4306;50.210;10.628;2023-12-20T11:01:18;4.70;99.90
8537;DHT22;4306;50.210;10.628;2023-12-20T11:03:49;4.70;99.90
8537;DHT22;4306;50.210;10.628;2023-12-20T11:06:27;4.70;99.90
8537;DHT22;4306;50.210;10.628;2023-12-20T11:09:06;4.70;99.90
8537;DHT22;4306;50.210;10.628;2023-12-20T11:11:56;4.70;99.90
8537;DHT22;4306;50.210;10.628;2023-12-20T11:14:33;4.90;99.90
8537;DHT22;4306;50.210;10.628;2023-12-20T11:17:07;4.80;99.90
8537;DHT22;4306;50.210;10.628;2023-12-20T11:19:42;4.80;99.90
8537;DHT22;4306;50.210;10.628;2023-12-20T11:22:31;4.90;99.90
8537;DHT22;4306;50.210;10.628;2023-12-20T11:25:03;4.90;99.90
8537;DHT22;4306;50.210;10.628;2023-12-20T11:27:32;4.80;99.90
8537;DHT22;4306;50.210;10.628;2023-12-20T11:29:59;4.80;99.90
8537;DHT22;4306;50.210;10.628;2023-12-20T11:32:29;4.90;99.90
8537;DHT22;4306;50.210;10.628;2023-12-20T11:34:58;4.90;99.90
8537;DHT22;4306;50.210;10.628;2023-12-20T11:37:30;4.80;99.90
8537;DHT22;4306;50.210;10.628;2023-12-20T11:40:00;4.80;99.90
8537;DHT22;4306;50.210;10.628;2023-12-20T11:42:33;4.80;99.90
8537;DHT22;4306;50.210;10.628;2023-12-20T11:45:02;4.80;99.90
8537;DHT22;4306;50.210;10.628;2023-12-20T11:47:30;4.80;99.90
8537;DHT22;4306;50.210;10.628;2023-12-20T11:49:57;4.80;99.90
8537;DHT22;4306;50.210;10.628;2023-12-20T11:52:26;4.80;99.90
8537;DHT22;4306;50.210;10.628;2023-12-20T11:54:54;4.80;99.90
8537;DHT22;4306;50.210;10.628;2023-12-20T11:57:21;4.80;99.90
8537;DHT22;4306;50.210;10.628;2023-12-20T11:59:48;4.90;99.90
8537;DHT22;4306;50.210;10.628;2023-12-20T12:02:16;4.90;99.90
8537;DHT22;4306;50.210;10.628;2023-12-20T12:04:43;4.90;99.90
8537;DHT22;4306;50.210;10.628;2023-12-20T12:07:10;4.90;99.90
8537;DHT22;4306;50.210;10.628;2023-12-20T12:09:37;4.90;99.90
8537;DHT22;4306;50.210;10.628;2023-12-20T12:12:07;4.90;99.90
8537;DHT22;4306;50.210;10.628;2023-12-20T12:14:34;4.90;99.90
8537;DHT22;4306;50.210;10.628;2023-12-20T12:17:02;4.90;99.90
8537;DHT22;4306;50.210;10.628;2023-12-20T12:19:30;4.90;99.90
8537;DHT22;4306;50.210;10.628;2023-12-20T12:22:07;4.90;99.90
8537;DHT22;4306;50.210;10.628;2023-12-20T12:24:39;4.90;99.90
8537;DHT22;4306;50.210;10.628;2023-12-20T12:27:07;4.90;99.90
8537;DHT22;4306;50.210;10.628;2023-12-20T12:29:35;5.00;99.90
8537;DHT22;4306;50.210;10.628;2023-12-20T12:32:05;5.10;99.90
8537;DHT22;4306;50.210;10.628;2023-12-20T12:34:33;5.10;99.90
8537;DHT22;4306;50.210;10.628;2023-12-20T12:37:01;5.10;99.90
8537;DHT22;4306;50.210;10.628;2023-12-20T12:39:29;5.10;99.90
8537;DHT22;4306;50.210;10.628;2023-12-20T12:41:56;5.10;99.90
8537;DHT22;4306;50.210;10.628;2023-12-20T12:44:25;5.00;99.90
8537;DHT22;4306;50.210;10.628;2023-12-20T12:46:52;5.10;99.90
8537;DHT22;4306;50.210;10.628;2023-12-20T12:49:20;5.10;99.90
8537;DHT22;4306;50.210;10.628;2023-12-20T12:51:47;5.10;99.90
8537;DHT22;4306;50.210;10.628;2023-12-20T12:54:14;5.00;99.90
8537;DHT22;4306;50.210;10.628;2023-12-20T12:56:42;5.10;99.90
8537;DHT22;4306;50.210;10.628;2023-12-20T12:59:09;5.00;99.90
8537;DHT22;4306;50.210;10.628;2023-12-20T13:01:38;5.10;99.90
8537;DHT22;4306;50.210;10.628;2023-12-20T13:04:05;5.00;99.90
8537;DHT22;4306;50.210;10.628;2023-12-20T13:06:36;5.00;99.90
8537;DHT22;4306;50.210;10.628;2023-12-20T13:09:03;5.00;99.90
8537;DHT22;4306;50.210;10.628;2023-12-20T13:11:31;5.10;99.90
8537;DHT22;4306;50.210;10.628;2023-12-20T13:13:58;5.10;99.90
8537;DHT22;4306;50.210;10.628;2023-12-20T13:16:25;5.00;99.90
8537;DHT22;4306;50.210;10.628;2023-12-20T13:18:53;5.00;99.90
8537;DHT22;4306;50.210;10.628;2023-12-20T13:21:21;5.10;99.90
8537;DHT22;4306;50.210;10.628;2023-12-20T13:23:48;5.00;99.90
8537;DHT22;4306;50.210;10.628;2023-12-20T13:26:15;5.10;99.90
8537;DHT22;4306;50.210;10.628;2023-12-20T13:28:43;5.10;99.90
8537;DHT22;4306;50.210;10.628;2023-12-20T13:31:10;5.00;99.90
8537;DHT22;4306;50.210;10.628;2023-12-20T13:33:37;5.00;99.90
8537;DHT22;4306;50.210;10.628;2023-12-20T13:36:06;5.00;99.90
8537;DHT22;4306;50.210;10.628;2023-12-20T13:38:34;5.10;99.90
8537;DHT22;4306;50.210;10.628;2023-12-20T13:41:01;5.00;99.90
8537;DHT22;4306;50.210;10.628;2023-12-20T13:43:28;5.00;99.90
8537;DHT22;4306;50.210;10.628;2023-12-20T13:45:55;5.00;99.90
8537;DHT22;4306;50.210;10.628;2023-12-20T13:48:22;5.10;99.90
8537;DHT22;4306;50.210;10.628;2023-12-20T13:50:49;5.00;99.90
8537;DHT22;4306;50.210;10.628;2023-12-20T13:53:18;5.00;99.90
8537;DHT22;4306;50.210;10.628;2023-12-20T13:55:45;5.00;99.90
8537;DHT22;4306;50.210;10.628;2023-12-20T13:58:12;5.00;99.90
8537;DHT22;4306;50.210;10.628;2023-12-20T14:00:40;5.00;99.90
8537;DHT22;4306;50.210;10.628;2023-12-20T14:03:07;5.00;99.90
8537;DHT22;4306;50.210;10.628;2023-12-20T14:05:35;5.00;99.90
8537;DHT22;4306;50.210;10.628;2023-12-20T14:08:03;5.00;99.90
8537;DHT22;4306;50.210;10.628;2023-12-20T14:10:32;5.00;99.90
8537;DHT22;4306;50.210;10.628;2023-12-20T14:12:58;5.00;99.90
8537;DHT22;4306;50.210;10.628;2023-12-20T14:15:26;4.90;99.90
8537;DHT22;4306;50.210;10.628;2023-12-20T14:17:53;5.00;99.90
8537;DHT22;4306;50.210;10.628;2023-12-20T14:20:20;5.00;99.90
8537;DHT22;4306;50.210;10.628;2023-12-20T14:22:47;4.90;99.90
8537;DHT22;4306;50.210;10.628;2023-12-20T14:25:14;4.90;99.90
8537;DHT22;4306;50.210;10.628;2023-12-20T14:27:43;5.00;99.90
8537;DHT22;4306;50.210;10.628;2023-12-20T14:30:11;4.90;99.90
8537;DHT22;4306;50.210;10.628;2023-12-20T14:32:39;4.90;99.90
8537;DHT22;4306;50.210;10.628;2023-12-20T14:35:07;4.90;99.90
8537;DHT22;4306;50.210;10.628;2023-12-20T14:37:34;4.90;99.90
8537;DHT22;4306;50.210;10.628;2023-12-20T14:40:05;4.90;99.90
8537;DHT22;4306;50.210;10.628;2023-12-20T14:42:36;4.90;99.90
8537;DHT22;4306;50.210;10.628;2023-12-20T14:45:05;4.90;99.90
8537;DHT22;4306;50.210;10.628;2023-12-20T14:47:33;4.90;99.90
8537;DHT22;4306;50.210;10.628;2023-12-20T14:50:02;4.80;99.90
8537;DHT22;4306;50.210;10.628;2023-12-20T14:52:29;4.80;99.90
8537;DHT22;4306;50.210;10.628;2023-12-20T14:54:56;4.80;99.90
8537;DHT22;4306;50.210;10.628;2023-12-20T14:57:23;4.80;99.90
8537;DHT22;4306;50.210;10.628;2023-12-20T14:59:51;4.80;99.90
8537;DHT22;4306;50.210;10.628;2023-12-20T15:02:20;4.80;99.90
8537;DHT22;4306;50.210;10.628;2023-12-20T15:04:47;4.80;99.90
8537;DHT22;4306;50.210;10.628;2023-12-20T15:07:15;4.80;99.90
8537;DHT22;4306;50.210;10.628;2023-12-20T15:09:42;4.80;99.90
8537;DHT22;4306;50.210;10.628;2023-12-20T15:12:11;4.80;99.90
8537;DHT22;4306;50.210;10.628;2023-12-20T15:14:38;4.70;99.90
8537;DHT22;4306;50.210;10.628;2023-12-20T15:17:05;4.70;99.90
8537;DHT22;4306;50.210;10.628;2023-12-20T15:19:34;4.70;99.90
8537;DHT22;4306;50.210;10.628;2023-12-20T15:22:01;4.70;99.90
8537;DHT22;4306;50.210;10.628;2023-12-20T15:24:29;4.70;99.90
8537;DHT22;4306;50.210;10.628;2023-12-20T15:27:04;4.70;99.90
8537;DHT22;4306;50.210;10.628;2023-12-20T15:29:31;4.60;99.90
8537;DHT22;4306;50.210;10.628;2023-12-20T15:31:58;4.60;99.90
8537;DHT22;4306;50.210;10.628;2023-12-20T15:34:25;4.70;99.90
8537;DHT22;4306;50.210;10.628;2023-12-20T15:36:53;4.60;99.90
8537;DHT22;4306;50.210;10.628;2023-12-20T15:39:21;4.60;99.90
8537;DHT22;4306;50.210;10.628;2023-12-20T15:41:48;4.60;99.90
8537;DHT22;4306;50.210;10.628;2023-12-20T15:44:15;4.60;99.90
8537;DHT22;4306;50.210;10.628;2023-12-20T15:46:42;4.60;99.90
8537;DHT22;4306;50.210;10.628;2023-12-20T15:49:09;4.60;99.90
8537;DHT22;4306;50.210;10.628;2023-12-20T15:51:37;4.60;99.90
8537;DHT22;4306;50.210;10.628;2023-12-20T15:54:05;4.60;99.90
8537;DHT22;4306;50.210;10.628;2023-12-20T15:56:34;4.60;99.90
8537;DHT22;4306;50.210;10.628;2023-12-20T15:59:02;4.70;99.90
8537;DHT22;4306;50.210;10.628;2023-12-20T16:01:29;4.70;99.90
8537;DHT22;4306;50.210;10.628;2023-12-20T16:03:57;4.70;99.90
8537;DHT22;4306;50.210;10.628;2023-12-20T16:06:24;4.60;99.90